Terminal Aerodrome Forecast
Issued by NWS Upton, NY

Home | Current Version | Previous Version | Text Only | Print | Product List | Glossary On
Versions: 1 2 3 4 5 6 7 8 9 10 11 12 13 14 15 16 17 18 19 20 21 22 23 24 25 26 27 28 29
659
FTUS41 KOKX 221125
TAFEWR
TAF
KEWR 221125Z 2212/2318 30011KT P6SM FEW060
     FM221400 29014G21KT P6SM SCT060
     FM221700 28018G27KT P6SM BKN060
     FM222200 32019G30KT P6SM BKN060
     FM230200 33016G25KT P6SM SCT060
     FM230800 34010KT P6SM SKC
     FM231200 31009KT P6SM SKC=

USA.gov is the U.S. government's official web portal to all federal, state and local government web resources and services.